sensor_id;sensor_type;location;lat;lon;timestamp;P1;durP1;ratioP1;P2;durP2;ratioP2
31674;SDS011;18276;45.520;11.018;2023-02-02T00:01:18;14.57;;;6.80;;
31674;SDS011;18276;45.520;11.018;2023-02-02T00:03:46;16.85;;;6.93;;
31674;SDS011;18276;45.520;11.018;2023-02-02T00:06:18;21.48;;;7.22;;
31674;SDS011;18276;45.520;11.018;2023-02-02T00:08:46;12.98;;;5.43;;
31674;SDS011;18276;45.520;11.018;2023-02-02T00:11:14;18.65;;;6.13;;
31674;SDS011;18276;45.520;11.018;2023-02-02T00:13:43;13.30;;;4.65;;
31674;SDS011;18276;45.520;11.018;2023-02-02T00:16:32;15.52;;;6.65;;
31674;SDS011;18276;45.520;11.018;2023-02-02T00:19:03;17.15;;;5.72;;
31674;SDS011;18276;45.520;11.018;2023-02-02T00:21:32;15.48;;;6.07;;
31674;SDS011;18276;45.520;11.018;2023-02-02T00:23:59;15.82;;;5.15;;
31674;SDS011;18276;45.520;11.018;2023-02-02T00:26:27;14.15;;;5.55;;
31674;SDS011;18276;45.520;11.018;2023-02-02T00:28:54;15.68;;;5.43;;
31674;SDS011;18276;45.520;11.018;2023-02-02T00:31:21;16.48;;;5.10;;
31674;SDS011;18276;45.520;11.018;2023-02-02T00:33:49;17.55;;;5.60;;
31674;SDS011;18276;45.520;11.018;2023-02-02T00:36:17;15.25;;;6.15;;
31674;SDS011;18276;45.520;11.018;2023-02-02T00:38:46;20.40;;;6.40;;
31674;SDS011;18276;45.520;11.018;2023-02-02T00:41:14;22.13;;;6.97;;
31674;SDS011;18276;45.520;11.018;2023-02-02T00:43:42;27.45;;;5.90;;
31674;SDS011;18276;45.520;11.018;2023-02-02T00:46:13;11.68;;;4.88;;
31674;SDS011;18276;45.520;11.018;2023-02-02T00:48:44;11.43;;;4.88;;
31674;SDS011;18276;45.520;11.018;2023-02-02T00:51:11;16.88;;;6.05;;
31674;SDS011;18276;45.520;11.018;2023-02-02T00:53:38;16.92;;;5.65;;
31674;SDS011;18276;45.520;11.018;2023-02-02T00:56:05;17.88;;;6.22;;
31674;SDS011;18276;45.520;11.018;2023-02-02T00:58:32;20.90;;;5.25;;
31674;SDS011;18276;45.520;11.018;2023-02-02T01:00:59;13.43;;;5.88;;
31674;SDS011;18276;45.520;11.018;2023-02-02T01:03:27;17.63;;;5.60;;
31674;SDS011;18276;45.520;11.018;2023-02-02T01:05:54;16.73;;;5.35;;
31674;SDS011;18276;45.520;11.018;2023-02-02T01:08:21;19.60;;;6.13;;
31674;SDS011;18276;45.520;11.018;2023-02-02T01:10:47;15.32;;;6.60;;
31674;SDS011;18276;45.520;11.018;2023-02-02T01:13:14;21.40;;;5.60;;
31674;SDS011;18276;45.520;11.018;2023-02-02T01:15:41;16.92;;;5.88;;
31674;SDS011;18276;45.520;11.018;2023-02-02T01:18:09;17.27;;;6.60;;
31674;SDS011;18276;45.520;11.018;2023-02-02T01:20:36;18.05;;;7.22;;
31674;SDS011;18276;45.520;11.018;2023-02-02T01:23:03;21.17;;;6.63;;
31674;SDS011;18276;45.520;11.018;2023-02-02T01:25:30;30.65;;;7.70;;
31674;SDS011;18276;45.520;11.018;2023-02-02T01:28:00;20.92;;;7.88;;
31674;SDS011;18276;45.520;11.018;2023-02-02T01:30:27;18.20;;;7.30;;
31674;SDS011;18276;45.520;11.018;2023-02-02T01:32:53;19.65;;;7.47;;
31674;SDS011;18276;45.520;11.018;2023-02-02T01:35:20;21.40;;;8.23;;
31674;SDS011;18276;45.520;11.018;2023-02-02T01:37:49;20.52;;;8.52;;
31674;SDS011;18276;45.520;11.018;2023-02-02T01:40:16;26.50;;;8.40;;
31674;SDS011;18276;45.520;11.018;2023-02-02T01:42:43;21.42;;;7.32;;
31674;SDS011;18276;45.520;11.018;2023-02-02T01:45:13;19.55;;;8.90;;
31674;SDS011;18276;45.520;11.018;2023-02-02T01:47:50;23.05;;;9.10;;
31674;SDS011;18276;45.520;11.018;2023-02-02T01:50:20;25.42;;;10.52;;
31674;SDS011;18276;45.520;11.018;2023-02-02T01:52:52;24.70;;;9.95;;
31674;SDS011;18276;45.520;11.018;2023-02-02T01:55:21;22.05;;;9.18;;
31674;SDS011;18276;45.520;11.018;2023-02-02T02:00:22;24.38;;;11.50;;
31674;SDS011;18276;45.520;11.018;2023-02-02T02:02:51;29.25;;;12.05;;
31674;SDS011;18276;45.520;11.018;2023-02-02T02:05:23;26.85;;;11.05;;
31674;SDS011;18276;45.520;11.018;2023-02-02T02:07:55;24.90;;;11.77;;
31674;SDS011;18276;45.520;11.018;2023-02-02T02:10:29;30.45;;;11.27;;
31674;SDS011;18276;45.520;11.018;2023-02-02T02:12:56;36.83;;;14.25;;
31674;SDS011;18276;45.520;11.018;2023-02-02T02:15:24;29.13;;;13.48;;
31674;SDS011;18276;45.520;11.018;2023-02-02T02:18:21;40.75;;;16.75;;
31674;SDS011;18276;45.520;11.018;2023-02-02T02:24:31;27.25;;;13.52;;
31674;SDS011;18276;45.520;11.018;2023-02-02T02:30:10;33.10;;;13.25;;
31674;SDS011;18276;45.520;11.018;2023-02-02T02:33:08;30.95;;;14.10;;
31674;SDS011;18276;45.520;11.018;2023-02-02T02:35:56;29.67;;;13.43;;
31674;SDS011;18276;45.520;11.018;2023-02-02T02:41:40;38.33;;;16.60;;
31674;SDS011;18276;45.520;11.018;2023-02-02T02:44:17;31.65;;;13.45;;
31674;SDS011;18276;45.520;11.018;2023-02-02T02:46:47;38.88;;;16.08;;
31674;SDS011;18276;45.520;11.018;2023-02-02T02:49:16;35.45;;;14.90;;
31674;SDS011;18276;45.520;11.018;2023-02-02T02:54:29;31.50;;;15.63;;
31674;SDS011;18276;45.520;11.018;2023-02-02T03:08:26;34.55;;;15.82;;
31674;SDS011;18276;45.520;11.018;2023-02-02T03:11:03;38.53;;;15.52;;
31674;SDS011;18276;45.520;11.018;2023-02-02T03:13:32;36.83;;;16.80;;
31674;SDS011;18276;45.520;11.018;2023-02-02T03:15:59;41.40;;;18.08;;
31674;SDS011;18276;45.520;11.018;2023-02-02T03:18:27;40.58;;;17.10;;
31674;SDS011;18276;45.520;11.018;2023-02-02T03:20:55;40.83;;;16.45;;
31674;SDS011;18276;45.520;11.018;2023-02-02T03:23:23;44.00;;;17.90;;
31674;SDS011;18276;45.520;11.018;2023-02-02T03:25:51;45.15;;;16.85;;
31674;SDS011;18276;45.520;11.018;2023-02-02T03:28:19;34.17;;;16.63;;
31674;SDS011;18276;45.520;11.018;2023-02-02T03:30:48;39.13;;;17.02;;
31674;SDS011;18276;45.520;11.018;2023-02-02T03:33:17;40.28;;;16.08;;
31674;SDS011;18276;45.520;11.018;2023-02-02T03:35:45;44.67;;;19.83;;
31674;SDS011;18276;45.520;11.018;2023-02-02T03:38:12;39.15;;;17.77;;
31674;SDS011;18276;45.520;11.018;2023-02-02T03:40:39;42.88;;;17.05;;
31674;SDS011;18276;45.520;11.018;2023-02-02T03:43:07;38.78;;;16.55;;
31674;SDS011;18276;45.520;11.018;2023-02-02T03:45:34;32.83;;;16.20;;
31674;SDS011;18276;45.520;11.018;2023-02-02T03:48:04;42.55;;;17.70;;
31674;SDS011;18276;45.520;11.018;2023-02-02T03:50:32;41.13;;;18.77;;
31674;SDS011;18276;45.520;11.018;2023-02-02T03:52:59;48.85;;;22.30;;
31674;SDS011;18276;45.520;11.018;2023-02-02T03:55:26;54.30;;;25.08;;
31674;SDS011;18276;45.520;11.018;2023-02-02T03:57:53;44.22;;;20.30;;
31674;SDS011;18276;45.520;11.018;2023-02-02T04:00:20;42.70;;;19.40;;
31674;SDS011;18276;45.520;11.018;2023-02-02T04:02:48;41.58;;;19.17;;
31674;SDS011;18276;45.520;11.018;2023-02-02T04:05:15;46.17;;;18.20;;
31674;SDS011;18276;45.520;11.018;2023-02-02T04:07:42;42.28;;;18.67;;
31674;SDS011;18276;45.520;11.018;2023-02-02T04:10:09;41.20;;;20.15;;
31674;SDS011;18276;45.520;11.018;2023-02-02T04:12:36;46.72;;;19.95;;
31674;SDS011;18276;45.520;11.018;2023-02-02T04:15:03;41.97;;;19.98;;
31674;SDS011;18276;45.520;11.018;2023-02-02T04:17:31;43.90;;;20.17;;
31674;SDS011;18276;45.520;11.018;2023-02-02T04:19:58;42.03;;;18.15;;
31674;SDS011;18276;45.520;11.018;2023-02-02T04:22:26;34.60;;;17.20;;
31674;SDS011;18276;45.520;11.018;2023-02-02T04:24:53;31.10;;;15.63;;
31674;SDS011;18276;45.520;11.018;2023-02-02T04:27:20;36.20;;;15.98;;
31674;SDS011;18276;45.520;11.018;2023-02-02T04:29:47;30.73;;;15.20;;
31674;SDS011;18276;45.520;11.018;2023-02-02T04:32:15;35.47;;;14.52;;
31674;SDS011;18276;45.520;11.018;2023-02-02T04:34:43;30.05;;;13.80;;
31674;SDS011;18276;45.520;11.018;2023-02-02T04:37:10;29.30;;;13.43;;
31674;SDS011;18276;45.520;11.018;2023-02-02T04:39:38;27.42;;;12.82;;
31674;SDS011;18276;45.520;11.018;2023-02-02T04:42:05;28.85;;;13.40;;
31674;SDS011;18276;45.520;11.018;2023-02-02T04:44:32;31.52;;;13.02;;
31674;SDS011;18276;45.520;11.018;2023-02-02T04:46:59;30.40;;;11.95;;
31674;SDS011;18276;45.520;11.018;2023-02-02T04:49:26;34.58;;;13.52;;
31674;SDS011;18276;45.520;11.018;2023-02-02T04:51:53;32.42;;;15.50;;
31674;SDS011;18276;45.520;11.018;2023-02-02T04:54:21;28.63;;;13.07;;
31674;SDS011;18276;45.520;11.018;2023-02-02T04:56:48;35.45;;;13.65;;
31674;SDS011;18276;45.520;11.018;2023-02-02T04:59:15;26.33;;;11.98;;
31674;SDS011;18276;45.520;11.018;2023-02-02T05:01:42;24.90;;;11.13;;
31674;SDS011;18276;45.520;11.018;2023-02-02T05:04:10;31.42;;;13.43;;
31674;SDS011;18276;45.520;11.018;2023-02-02T05:06:37;26.25;;;12.65;;
31674;SDS011;18276;45.520;11.018;2023-02-02T05:09:04;36.33;;;14.95;;
31674;SDS011;18276;45.520;11.018;2023-02-02T05:11:31;36.33;;;15.93;;
31674;SDS011;18276;45.520;11.018;2023-02-02T05:13:59;29.60;;;13.18;;
31674;SDS011;18276;45.520;11.018;2023-02-02T05:16:26;40.58;;;17.17;;
31674;SDS011;18276;45.520;11.018;2023-02-02T05:18:55;26.60;;;13.52;;
31674;SDS011;18276;45.520;11.018;2023-02-02T05:21:23;26.80;;;14.43;;
31674;SDS011;18276;45.520;11.018;2023-02-02T05:23:50;28.65;;;13.30;;
31674;SDS011;18276;45.520;11.018;2023-02-02T05:26:18;30.00;;;12.20;;
31674;SDS011;18276;45.520;11.018;2023-02-02T05:28:48;25.42;;;10.30;;
31674;SDS011;18276;45.520;11.018;2023-02-02T05:31:16;20.50;;;6.85;;
31674;SDS011;18276;45.520;11.018;2023-02-02T05:33:43;13.43;;;6.50;;
31674;SDS011;18276;45.520;11.018;2023-02-02T05:36:11;15.50;;;6.97;;
31674;SDS011;18276;45.520;11.018;2023-02-02T05:38:38;27.98;;;11.02;;
31674;SDS011;18276;45.520;11.018;2023-02-02T05:41:05;31.10;;;15.10;;
31674;SDS011;18276;45.520;11.018;2023-02-02T05:43:32;27.63;;;12.63;;
31674;SDS011;18276;45.520;11.018;2023-02-02T05:46:00;27.27;;;11.82;;
31674;SDS011;18276;45.520;11.018;2023-02-02T05:48:28;26.63;;;9.82;;
31674;SDS011;18276;45.520;11.018;2023-02-02T05:53:27;15.85;;;5.50;;
31674;SDS011;18276;45.520;11.018;2023-02-02T05:55:56;20.35;;;6.32;;
31674;SDS011;18276;45.520;11.018;2023-02-02T05:58:24;20.88;;;8.98;;
31674;SDS011;18276;45.520;11.018;2023-02-02T06:00:52;27.67;;;11.50;;
31674;SDS011;18276;45.520;11.018;2023-02-02T06:03:22;26.77;;;10.13;;
31674;SDS011;18276;45.520;11.018;2023-02-02T06:05:49;23.40;;;10.32;;
31674;SDS011;18276;45.520;11.018;2023-02-02T06:08:16;10.45;;;5.40;;
31674;SDS011;18276;45.520;11.018;2023-02-02T06:10:43;21.10;;;7.00;;
31674;SDS011;18276;45.520;11.018;2023-02-02T06:13:11;20.10;;;7.53;;
31674;SDS011;18276;45.520;11.018;2023-02-02T06:15:38;26.08;;;9.77;;
31674;SDS011;18276;45.520;11.018;2023-02-02T06:18:07;19.13;;;8.23;;
31674;SDS011;18276;45.520;11.018;2023-02-02T06:20:35;17.55;;;7.13;;
31674;SDS011;18276;45.520;11.018;2023-02-02T06:23:03;14.55;;;5.60;;
31674;SDS011;18276;45.520;11.018;2023-02-02T06:25:31;19.00;;;4.53;;
31674;SDS011;18276;45.520;11.018;2023-02-02T06:27:59;17.88;;;4.93;;
31674;SDS011;18276;45.520;11.018;2023-02-02T06:30:27;11.38;;;4.43;;
31674;SDS011;18276;45.520;11.018;2023-02-02T06:32:54;11.52;;;3.67;;
31674;SDS011;18276;45.520;11.018;2023-02-02T06:35:21;20.40;;;6.03;;
31674;SDS011;18276;45.520;11.018;2023-02-02T06:37:48;21.08;;;6.88;;
31674;SDS011;18276;45.520;11.018;2023-02-02T06:40:15;9.63;;;3.90;;
31674;SDS011;18276;45.520;11.018;2023-02-02T06:42:42;46.20;;;7.00;;
31674;SDS011;18276;45.520;11.018;2023-02-02T06:45:09;12.70;;;3.75;;
31674;SDS011;18276;45.520;11.018;2023-02-02T06:47:37;12.70;;;3.72;;
31674;SDS011;18276;45.520;11.018;2023-02-02T06:50:04;17.67;;;3.67;;
31674;SDS011;18276;45.520;11.018;2023-02-02T06:52:31;20.45;;;4.28;;
31674;SDS011;18276;45.520;11.018;2023-02-02T06:54:58;26.15;;;4.88;;
31674;SDS011;18276;45.520;11.018;2023-02-02T06:57:25;30.75;;;4.78;;
31674;SDS011;18276;45.520;11.018;2023-02-02T06:59:52;21.88;;;4.78;;
31674;SDS011;18276;45.520;11.018;2023-02-02T07:02:19;30.65;;;6.70;;
31674;SDS011;18276;45.520;11.018;2023-02-02T07:04:48;29.85;;;7.40;;
31674;SDS011;18276;45.520;11.018;2023-02-02T07:07:16;29.58;;;8.73;;
31674;SDS011;18276;45.520;11.018;2023-02-02T07:09:43;35.22;;;8.50;;
31674;SDS011;18276;45.520;11.018;2023-02-02T07:12:10;23.88;;;7.57;;
31674;SDS011;18276;45.520;11.018;2023-02-02T07:14:37;27.73;;;7.68;;
31674;SDS011;18276;45.520;11.018;2023-02-02T07:17:04;23.70;;;8.10;;
31674;SDS011;18276;45.520;11.018;2023-02-02T07:19:31;34.28;;;10.10;;
31674;SDS011;18276;45.520;11.018;2023-02-02T07:22:02;68.15;;;21.50;;
31674;SDS011;18276;45.520;11.018;2023-02-02T07:24:30;54.35;;;17.00;;
31674;SDS011;18276;45.520;11.018;2023-02-02T07:26:58;39.42;;;12.25;;
31674;SDS011;18276;45.520;11.018;2023-02-02T07:29:25;40.80;;;11.82;;
31674;SDS011;18276;45.520;11.018;2023-02-02T07:34:20;30.90;;;10.05;;
31674;SDS011;18276;45.520;11.018;2023-02-02T07:36:47;33.60;;;8.60;;
31674;SDS011;18276;45.520;11.018;2023-02-02T07:39:14;27.85;;;6.85;;
31674;SDS011;18276;45.520;11.018;2023-02-02T07:41:41;25.73;;;7.22;;
31674;SDS011;18276;45.520;11.018;2023-02-02T07:44:21;25.50;;;10.23;;
31674;SDS011;18276;45.520;11.018;2023-02-02T07:46:48;25.92;;;7.57;;
31674;SDS011;18276;45.520;11.018;2023-02-02T07:49:16;24.70;;;7.80;;
31674;SDS011;18276;45.520;11.018;2023-02-02T07:51:43;28.13;;;8.30;;
31674;SDS011;18276;45.520;11.018;2023-02-02T07:54:13;27.63;;;7.65;;
31674;SDS011;18276;45.520;11.018;2023-02-02T07:56:41;30.42;;;8.52;;
31674;SDS011;18276;45.520;11.018;2023-02-02T07:59:08;29.27;;;7.70;;
31674;SDS011;18276;45.520;11.018;2023-02-02T08:01:36;28.92;;;8.40;;
31674;SDS011;18276;45.520;11.018;2023-02-02T08:04:03;27.02;;;7.47;;
31674;SDS011;18276;45.520;11.018;2023-02-02T08:06:34;28.95;;;7.57;;
31674;SDS011;18276;45.520;11.018;2023-02-02T08:09:04;26.50;;;7.43;;
31674;SDS011;18276;45.520;11.018;2023-02-02T08:11:33;34.20;;;7.28;;
31674;SDS011;18276;45.520;11.018;2023-02-02T08:14:01;30.00;;;7.60;;
31674;SDS011;18276;45.520;11.018;2023-02-02T08:16:29;21.92;;;7.20;;
31674;SDS011;18276;45.520;11.018;2023-02-02T08:18:57;24.13;;;7.22;;
31674;SDS011;18276;45.520;11.018;2023-02-02T08:21:24;21.13;;;7.75;;
31674;SDS011;18276;45.520;11.018;2023-02-02T08:23:52;26.30;;;8.65;;
31674;SDS011;18276;45.520;11.018;2023-02-02T08:26:20;38.65;;;9.43;;
31674;SDS011;18276;45.520;11.018;2023-02-02T08:28:53;37.53;;;12.43;;
31674;SDS011;18276;45.520;11.018;2023-02-02T08:31:23;30.80;;;13.20;;
31674;SDS011;18276;45.520;11.018;2023-02-02T08:33:59;29.60;;;11.95;;
31674;SDS011;18276;45.520;11.018;2023-02-02T08:36:27;26.65;;;8.85;;
31674;SDS011;18276;45.520;11.018;2023-02-02T08:38:58;22.27;;;8.98;;
31674;SDS011;18276;45.520;11.018;2023-02-02T08:41:28;24.98;;;9.32;;
31674;SDS011;18276;45.520;11.018;2023-02-02T08:43:56;26.25;;;13.07;;
31674;SDS011;18276;45.520;11.018;2023-02-02T08:46:23;32.25;;;12.48;;
31674;SDS011;18276;45.520;11.018;2023-02-02T08:48:51;23.38;;;10.02;;
31674;SDS011;18276;45.520;11.018;2023-02-02T08:51:18;27.15;;;9.30;;
31674;SDS011;18276;45.520;11.018;2023-02-02T08:53:46;23.42;;;9.65;;
31674;SDS011;18276;45.520;11.018;2023-02-02T08:56:14;23.10;;;10.20;;
31674;SDS011;18276;45.520;11.018;2023-02-02T15:43:42;18.90;;;9.18;;
31674;SDS011;18276;45.520;11.018;2023-02-02T15:46:11;17.90;;;9.13;;
31674;SDS011;18276;45.520;11.018;2023-02-02T15:52:14;18.25;;;10.88;;
31674;SDS011;18276;45.520;11.018;2023-02-02T15:54:50;25.60;;;9.60;;
31674;SDS011;18276;45.520;11.018;2023-02-02T15:57:39;22.98;;;10.25;;
31674;SDS011;18276;45.520;11.018;2023-02-02T16:02:58;21.40;;;10.05;;
31674;SDS011;18276;45.520;11.018;2023-02-02T16:05:45;31.92;;;10.93;;
31674;SDS011;18276;45.520;11.018;2023-02-02T16:08:29;30.52;;;9.88;;
31674;SDS011;18276;45.520;11.018;2023-02-02T16:11:04;36.30;;;11.65;;
31674;SDS011;18276;45.520;11.018;2023-02-02T16:13:43;38.03;;;12.93;;
31674;SDS011;18276;45.520;11.018;2023-02-02T16:16:30;34.08;;;11.18;;
31674;SDS011;18276;45.520;11.018;2023-02-02T16:19:11;37.88;;;12.27;;
31674;SDS011;18276;45.520;11.018;2023-02-02T16:21:58;40.58;;;12.10;;
31674;SDS011;18276;45.520;11.018;2023-02-02T16:24:36;43.45;;;12.38;;
31674;SDS011;18276;45.520;11.018;2023-02-02T16:27:09;34.33;;;13.20;;
31674;SDS011;18276;45.520;11.018;2023-02-02T16:29:39;41.45;;;13.80;;
31674;SDS011;18276;45.520;11.018;2023-02-02T16:32:24;40.33;;;13.77;;
31674;SDS011;18276;45.520;11.018;2023-02-02T16:34:53;46.33;;;13.80;;
31674;SDS011;18276;45.520;11.018;2023-02-02T16:37:25;31.00;;;11.73;;
31674;SDS011;18276;45.520;11.018;2023-02-02T16:39:54;45.33;;;13.90;;
31674;SDS011;18276;45.520;11.018;2023-02-02T16:42:24;43.13;;;11.55;;
31674;SDS011;18276;45.520;11.018;2023-02-02T16:44:56;30.88;;;11.35;;
31674;SDS011;18276;45.520;11.018;2023-02-02T16:52:44;35.88;;;11.00;;
31674;SDS011;18276;45.520;11.018;2023-02-02T16:55:19;37.42;;;9.23;;
31674;SDS011;18276;45.520;11.018;2023-02-02T16:57:47;29.50;;;10.45;;
31674;SDS011;18276;45.520;11.018;2023-02-02T17:00:20;33.65;;;10.63;;
31674;SDS011;18276;45.520;11.018;2023-02-02T17:02:55;35.53;;;11.20;;
31674;SDS011;18276;45.520;11.018;2023-02-02T17:05:34;32.30;;;9.98;;
31674;SDS011;18276;45.520;11.018;2023-02-02T17:08:23;28.15;;;8.93;;
31674;SDS011;18276;45.520;11.018;2023-02-02T17:11:06;17.02;;;7.20;;
31674;SDS011;18276;45.520;11.018;2023-02-02T17:13:49;27.58;;;7.18;;
31674;SDS011;18276;45.520;11.018;2023-02-02T17:16:19;17.45;;;7.15;;
31674;SDS011;18276;45.520;11.018;2023-02-02T17:18:49;16.52;;;6.43;;
31674;SDS011;18276;45.520;11.018;2023-02-02T17:21:20;16.17;;;6.80;;
31674;SDS011;18276;45.520;11.018;2023-02-02T17:23:49;23.23;;;8.23;;
31674;SDS011;18276;45.520;11.018;2023-02-02T17:26:19;30.42;;;8.15;;
31674;SDS011;18276;45.520;11.018;2023-02-02T17:28:46;20.77;;;7.50;;
31674;SDS011;18276;45.520;11.018;2023-02-02T17:31:15;10.15;;;5.30;;
31674;SDS011;18276;45.520;11.018;2023-02-02T17:33:43;12.30;;;5.03;;
31674;SDS011;18276;45.520;11.018;2023-02-02T17:36:11;13.02;;;4.82;;
31674;SDS011;18276;45.520;11.018;2023-02-02T17:38:39;15.90;;;5.97;;
31674;SDS011;18276;45.520;11.018;2023-02-02T17:41:08;9.93;;;4.50;;
31674;SDS011;18276;45.520;11.018;2023-02-02T17:43:37;10.75;;;4.90;;
31674;SDS011;18276;45.520;11.018;2023-02-02T17:46:04;9.13;;;3.47;;
31674;SDS011;18276;45.520;11.018;2023-02-02T17:48:35;7.63;;;3.53;;
31674;SDS011;18276;45.520;11.018;2023-02-02T17:51:02;8.65;;;4.80;;
31674;SDS011;18276;45.520;11.018;2023-02-02T17:53:32;6.90;;;3.70;;
31674;SDS011;18276;45.520;11.018;2023-02-02T17:55:59;8.40;;;3.40;;
31674;SDS011;18276;45.520;11.018;2023-02-02T17:58:26;8.55;;;3.50;;
31674;SDS011;18276;45.520;11.018;2023-02-02T18:00:54;13.85;;;3.90;;
31674;SDS011;18276;45.520;11.018;2023-02-02T18:03:28;5.80;;;3.45;;
31674;SDS011;18276;45.520;11.018;2023-02-02T18:06:00;8.23;;;3.67;;
31674;SDS011;18276;45.520;11.018;2023-02-02T18:08:27;10.55;;;3.75;;
31674;SDS011;18276;45.520;11.018;2023-02-02T18:10:54;7.60;;;4.03;;
31674;SDS011;18276;45.520;11.018;2023-02-02T18:13:22;13.70;;;4.45;;
31674;SDS011;18276;45.520;11.018;2023-02-02T18:15:50;8.63;;;4.33;;
31674;SDS011;18276;45.520;11.018;2023-02-02T18:18:18;8.25;;;5.05;;
31674;SDS011;18276;45.520;11.018;2023-02-02T18:20:46;12.07;;;5.28;;
31674;SDS011;18276;45.520;11.018;2023-02-02T18:23:15;11.95;;;5.82;;
31674;SDS011;18276;45.520;11.018;2023-02-02T18:25:43;11.57;;;5.32;;
31674;SDS011;18276;45.520;11.018;2023-02-02T18:30:41;10.70;;;4.20;;
31674;SDS011;18276;45.520;11.018;2023-02-02T18:33:09;8.45;;;4.28;;
31674;SDS011;18276;45.520;11.018;2023-02-02T18:35:43;7.80;;;4.30;;
31674;SDS011;18276;45.520;11.018;2023-02-02T18:38:11;9.70;;;4.20;;
31674;SDS011;18276;45.520;11.018;2023-02-02T18:40:39;6.40;;;3.40;;
31674;SDS011;18276;45.520;11.018;2023-02-02T18:43:07;6.50;;;3.65;;
31674;SDS011;18276;45.520;11.018;2023-02-02T18:48:01;6.80;;;3.65;;
31674;SDS011;18276;45.520;11.018;2023-02-02T18:55:22;8.32;;;4.68;;
31674;SDS011;18276;45.520;11.018;2023-02-02T18:57:50;8.73;;;4.00;;
31674;SDS011;18276;45.520;11.018;2023-02-02T19:00:18;12.65;;;4.50;;
31674;SDS011;18276;45.520;11.018;2023-02-02T19:02:47;6.63;;;3.72;;
31674;SDS011;18276;45.520;11.018;2023-02-02T19:05:14;5.45;;;4.07;;
31674;SDS011;18276;45.520;11.018;2023-02-02T19:08:00;9.63;;;4.47;;
31674;SDS011;18276;45.520;11.018;2023-02-02T19:10:29;5.40;;;2.90;;
31674;SDS011;18276;45.520;11.018;2023-02-02T19:12:57;5.28;;;3.22;;
31674;SDS011;18276;45.520;11.018;2023-02-02T19:15:27;10.65;;;4.43;;
31674;SDS011;18276;45.520;11.018;2023-02-02T19:17:56;7.43;;;3.72;;
31674;SDS011;18276;45.520;11.018;2023-02-02T19:20:25;7.55;;;3.38;;
31674;SDS011;18276;45.520;11.018;2023-02-02T19:25:51;3.58;;;2.78;;
31674;SDS011;18276;45.520;11.018;2023-02-02T19:28:23;8.00;;;3.78;;
31674;SDS011;18276;45.520;11.018;2023-02-02T19:30:56;7.28;;;2.70;;
31674;SDS011;18276;45.520;11.018;2023-02-02T19:33:31;3.38;;;2.00;;
31674;SDS011;18276;45.520;11.018;2023-02-02T19:36:04;7.30;;;2.35;;
31674;SDS011;18276;45.520;11.018;2023-02-02T19:38:38;6.60;;;2.50;;
31674;SDS011;18276;45.520;11.018;2023-02-02T19:41:24;5.30;;;2.65;;
31674;SDS011;18276;45.520;11.018;2023-02-02T19:43:54;4.72;;;2.38;;
31674;SDS011;18276;45.520;11.018;2023-02-02T19:46:25;7.93;;;2.70;;
31674;SDS011;18276;45.520;11.018;2023-02-02T19:49:03;4.13;;;2.10;;
31674;SDS011;18276;45.520;11.018;2023-02-02T19:54:31;6.43;;;2.65;;
31674;SDS011;18276;45.520;11.018;2023-02-02T19:56:59;5.63;;;2.58;;
31674;SDS011;18276;45.520;11.018;2023-02-02T20:05:21;16.05;;;8.27;;
31674;SDS011;18276;45.520;11.018;2023-02-02T20:07:57;22.45;;;10.95;;
31674;SDS011;18276;45.520;11.018;2023-02-02T20:10:27;16.35;;;8.88;;
31674;SDS011;18276;45.520;11.018;2023-02-02T20:13:09;16.50;;;9.27;;
31674;SDS011;18276;45.520;11.018;2023-02-02T20:15:45;23.48;;;11.32;;
31674;SDS011;18276;45.520;11.018;2023-02-02T20:18:17;21.58;;;13.73;;
31674;SDS011;18276;45.520;11.018;2023-02-02T20:20:47;22.25;;;10.20;;
31674;SDS011;18276;45.520;11.018;2023-02-02T20:23:21;20.08;;;11.25;;
31674;SDS011;18276;45.520;11.018;2023-02-02T20:25:56;17.05;;;10.07;;
31674;SDS011;18276;45.520;11.018;2023-02-02T20:28:37;18.27;;;10.05;;
31674;SDS011;18276;45.520;11.018;2023-02-02T20:31:15;14.53;;;8.73;;
31674;SDS011;18276;45.520;11.018;2023-02-02T20:33:45;21.90;;;11.35;;
31674;SDS011;18276;45.520;11.018;2023-02-02T20:39:11;45.75;;;10.57;;
31674;SDS011;18276;45.520;11.018;2023-02-02T20:41:41;16.15;;;9.55;;
31674;SDS011;18276;45.520;11.018;2023-02-02T20:44:09;25.35;;;11.45;;
31674;SDS011;18276;45.520;11.018;2023-02-02T20:46:36;20.67;;;11.48;;
31674;SDS011;18276;45.520;11.018;2023-02-02T20:49:03;22.45;;;9.07;;
31674;SDS011;18276;45.520;11.018;2023-02-02T20:51:31;12.45;;;7.55;;
31674;SDS011;18276;45.520;11.018;2023-02-02T20:53:58;10.38;;;4.50;;
31674;SDS011;18276;45.520;11.018;2023-02-02T20:56:25;13.13;;;5.85;;
31674;SDS011;18276;45.520;11.018;2023-02-02T20:58:52;13.30;;;6.28;;
31674;SDS011;18276;45.520;11.018;2023-02-02T21:01:19;15.02;;;6.70;;
31674;SDS011;18276;45.520;11.018;2023-02-02T21:03:48;13.40;;;6.90;;
31674;SDS011;18276;45.520;11.018;2023-02-02T21:06:15;21.65;;;9.63;;
31674;SDS011;18276;45.520;11.018;2023-02-02T21:08:43;12.45;;;6.18;;
31674;SDS011;18276;45.520;11.018;2023-02-02T21:11:10;12.60;;;4.63;;
31674;SDS011;18276;45.520;11.018;2023-02-02T21:13:37;14.00;;;5.30;;
31674;SDS011;18276;45.520;11.018;2023-02-02T21:16:05;12.57;;;4.63;;
31674;SDS011;18276;45.520;11.018;2023-02-02T21:18:32;8.70;;;4.20;;
31674;SDS011;18276;45.520;11.018;2023-02-02T21:20:59;6.60;;;3.95;;
31674;SDS011;18276;45.520;11.018;2023-02-02T21:23:26;14.45;;;4.38;;
31674;SDS011;18276;45.520;11.018;2023-02-02T21:25:53;7.82;;;3.38;;
31674;SDS011;18276;45.520;11.018;2023-02-02T21:28:21;12.30;;;3.30;;
31674;SDS011;18276;45.520;11.018;2023-02-02T21:30:48;5.80;;;2.05;;
31674;SDS011;18276;45.520;11.018;2023-02-02T21:33:15;7.88;;;4.88;;
31674;SDS011;18276;45.520;11.018;2023-02-02T21:35:42;21.67;;;11.40;;
31674;SDS011;18276;45.520;11.018;2023-02-02T21:38:10;15.48;;;8.05;;
31674;SDS011;18276;45.520;11.018;2023-02-02T21:40:40;39.10;;;17.95;;
31674;SDS011;18276;45.520;11.018;2023-02-02T21:43:17;25.88;;;13.73;;
31674;SDS011;18276;45.520;11.018;2023-02-02T21:45:47;28.42;;;15.00;;
31674;SDS011;18276;45.520;11.018;2023-02-02T21:50:51;32.58;;;18.40;;
31674;SDS011;18276;45.520;11.018;2023-02-02T21:53:27;37.20;;;19.77;;
31674;SDS011;18276;45.520;11.018;2023-02-02T21:55:55;35.17;;;20.02;;
31674;SDS011;18276;45.520;11.018;2023-02-02T21:58:31;37.53;;;20.85;;
31674;SDS011;18276;45.520;11.018;2023-02-02T22:09:40;43.95;;;23.05;;
31674;SDS011;18276;45.520;11.018;2023-02-02T22:12:28;37.25;;;21.65;;
31674;SDS011;18276;45.520;11.018;2023-02-02T22:14:59;41.40;;;20.77;;
